sensor_id;sensor_type;location;lat;lon;timestamp;P1;durP1;ratioP1;P2;durP2;ratioP2
22017;SDS011;11173;51.050;7.108;2024-01-30T00:02:09;6.38;;;4.78;;
22017;SDS011;11173;51.050;7.108;2024-01-30T00:12:10;7.30;;;5.80;;
22017;SDS011;11173;51.050;7.108;2024-01-30T00:22:11;5.97;;;5.38;;
22017;SDS011;11173;51.050;7.108;2024-01-30T00:32:11;8.45;;;5.65;;
22017;SDS011;11173;51.050;7.108;2024-01-30T00:42:11;6.90;;;5.70;;
22017;SDS011;11173;51.050;7.108;2024-01-30T00:52:11;7.65;;;5.93;;
22017;SDS011;11173;51.050;7.108;2024-01-30T01:02:12;8.77;;;6.10;;
22017;SDS011;11173;51.050;7.108;2024-01-30T01:12:12;7.63;;;6.07;;
22017;SDS011;11173;51.050;7.108;2024-01-30T01:22:12;6.82;;;5.82;;
22017;SDS011;11173;51.050;7.108;2024-01-30T01:32:12;6.75;;;4.90;;
22017;SDS011;11173;51.050;7.108;2024-01-30T01:42:13;6.05;;;5.45;;
22017;SDS011;11173;51.050;7.108;2024-01-30T01:52:13;7.95;;;6.22;;
22017;SDS011;11173;51.050;7.108;2024-01-30T02:02:13;9.23;;;6.80;;
22017;SDS011;11173;51.050;7.108;2024-01-30T02:12:16;11.52;;;6.63;;
22017;SDS011;11173;51.050;7.108;2024-01-30T02:22:16;6.30;;;5.63;;
22017;SDS011;11173;51.050;7.108;2024-01-30T02:32:16;7.93;;;6.47;;
22017;SDS011;11173;51.050;7.108;2024-01-30T02:42:17;9.77;;;6.22;;
22017;SDS011;11173;51.050;7.108;2024-01-30T02:52:17;8.38;;;6.03;;
22017;SDS011;11173;51.050;7.108;2024-01-30T03:02:17;9.00;;;5.88;;
22017;SDS011;11173;51.050;7.108;2024-01-30T03:12:17;8.77;;;5.95;;
22017;SDS011;11173;51.050;7.108;2024-01-30T03:22:18;8.88;;;5.65;;
22017;SDS011;11173;51.050;7.108;2024-01-30T03:32:18;6.75;;;5.82;;
22017;SDS011;11173;51.050;7.108;2024-01-30T03:42:18;5.47;;;4.97;;
22017;SDS011;11173;51.050;7.108;2024-01-30T03:52:19;5.47;;;4.97;;
22017;SDS011;11173;51.050;7.108;2024-01-30T04:02:19;5.57;;;4.63;;
22017;SDS011;11173;51.050;7.108;2024-01-30T04:12:19;5.15;;;4.50;;
22017;SDS011;11173;51.050;7.108;2024-01-30T04:22:19;7.63;;;4.30;;
22017;SDS011;11173;51.050;7.108;2024-01-30T04:32:20;5.65;;;4.15;;
22017;SDS011;11173;51.050;7.108;2024-01-30T04:42:20;4.70;;;4.30;;
22017;SDS011;11173;51.050;7.108;2024-01-30T04:52:20;3.75;;;3.45;;
22017;SDS011;11173;51.050;7.108;2024-01-30T05:02:20;3.10;;;2.80;;
22017;SDS011;11173;51.050;7.108;2024-01-30T05:12:21;2.80;;;2.47;;
22017;SDS011;11173;51.050;7.108;2024-01-30T05:22:22;4.93;;;3.95;;
22017;SDS011;11173;51.050;7.108;2024-01-30T05:32:22;4.85;;;4.40;;
22017;SDS011;11173;51.050;7.108;2024-01-30T05:42:22;3.17;;;2.97;;
22017;SDS011;11173;51.050;7.108;2024-01-30T05:52:22;2.10;;;2.00;;
22017;SDS011;11173;51.050;7.108;2024-01-30T06:02:23;3.42;;;3.20;;
22017;SDS011;11173;51.050;7.108;2024-01-30T06:12:23;6.13;;;4.95;;
22017;SDS011;11173;51.050;7.108;2024-01-30T06:22:23;6.78;;;4.97;;
22017;SDS011;11173;51.050;7.108;2024-01-30T06:32:24;4.88;;;4.38;;
22017;SDS011;11173;51.050;7.108;2024-01-30T06:42:24;5.75;;;5.10;;
22017;SDS011;11173;51.050;7.108;2024-01-30T06:52:24;6.32;;;4.93;;
22017;SDS011;11173;51.050;7.108;2024-01-30T07:02:25;5.40;;;4.90;;
22017;SDS011;11173;51.050;7.108;2024-01-30T07:12:25;4.32;;;3.92;;
22017;SDS011;11173;51.050;7.108;2024-01-30T07:22:26;6.40;;;4.95;;
22017;SDS011;11173;51.050;7.108;2024-01-30T07:32:26;4.10;;;3.70;;
22017;SDS011;11173;51.050;7.108;2024-01-30T07:42:26;4.43;;;3.50;;
22017;SDS011;11173;51.050;7.108;2024-01-30T07:52:27;3.42;;;3.05;;
22017;SDS011;11173;51.050;7.108;2024-01-30T08:02:27;4.00;;;3.60;;
22017;SDS011;11173;51.050;7.108;2024-01-30T08:12:27;4.70;;;4.30;;
22017;SDS011;11173;51.050;7.108;2024-01-30T08:22:27;5.72;;;4.47;;
22017;SDS011;11173;51.050;7.108;2024-01-30T08:32:28;4.47;;;4.03;;
22017;SDS011;11173;51.050;7.108;2024-01-30T08:42:28;5.85;;;4.53;;
22017;SDS011;11173;51.050;7.108;2024-01-30T08:52:28;5.95;;;4.22;;
22017;SDS011;11173;51.050;7.108;2024-01-30T09:02:28;4.00;;;3.65;;
22017;SDS011;11173;51.050;7.108;2024-01-30T09:12:29;4.80;;;3.85;;
22017;SDS011;11173;51.050;7.108;2024-01-30T09:22:29;3.28;;;2.83;;
22017;SDS011;11173;51.050;7.108;2024-01-30T09:32:29;3.53;;;3.22;;
22017;SDS011;11173;51.050;7.108;2024-01-30T09:42:33;2.53;;;2.33;;
22017;SDS011;11173;51.050;7.108;2024-01-30T09:52:35;2.50;;;2.30;;
22017;SDS011;11173;51.050;7.108;2024-01-30T10:02:35;1.90;;;1.80;;
22017;SDS011;11173;51.050;7.108;2024-01-30T10:12:36;1.50;;;1.40;;
22017;SDS011;11173;51.050;7.108;2024-01-30T10:22:36;1.88;;;1.75;;
22017;SDS011;11173;51.050;7.108;2024-01-30T10:32:36;1.38;;;1.27;;
22017;SDS011;11173;51.050;7.108;2024-01-30T10:42:37;1.08;;;1.02;;
22017;SDS011;11173;51.050;7.108;2024-01-30T10:52:40;1.40;;;1.30;;
22017;SDS011;11173;51.050;7.108;2024-01-30T11:02:45;1.10;;;1.10;;
22017;SDS011;11173;51.050;7.108;2024-01-30T11:12:45;0.75;;;0.75;;
22017;SDS011;11173;51.050;7.108;2024-01-30T11:22:46;0.70;;;0.70;;
22017;SDS011;11173;51.050;7.108;2024-01-30T11:32:57;0.80;;;0.80;;
22017;SDS011;11173;51.050;7.108;2024-01-30T11:42:58;1.02;;;0.93;;
22017;SDS011;11173;51.050;7.108;2024-01-30T11:52:59;0.65;;;0.65;;
22017;SDS011;11173;51.050;7.108;2024-01-30T12:02:59;0.50;;;0.50;;
22017;SDS011;11173;51.050;7.108;2024-01-30T12:13:00;0.68;;;0.68;;
22017;SDS011;11173;51.050;7.108;2024-01-30T12:23:01;0.52;;;0.52;;
22017;SDS011;11173;51.050;7.108;2024-01-30T12:33:01;0.43;;;0.40;;
22017;SDS011;11173;51.050;7.108;2024-01-30T12:43:04;0.30;;;0.30;;
22017;SDS011;11173;51.050;7.108;2024-01-30T12:53:04;1.35;;;1.20;;
22017;SDS011;11173;51.050;7.108;2024-01-30T13:03:06;1.00;;;0.73;;
22017;SDS011;11173;51.050;7.108;2024-01-30T13:13:06;1.00;;;0.90;;
22017;SDS011;11173;51.050;7.108;2024-01-30T13:23:06;0.95;;;0.95;;
22017;SDS011;11173;51.050;7.108;2024-01-30T13:33:07;0.55;;;0.55;;
22017;SDS011;11173;51.050;7.108;2024-01-30T13:43:07;1.48;;;1.13;;
22017;SDS011;11173;51.050;7.108;2024-01-30T13:53:07;2.72;;;2.53;;
22017;SDS011;11173;51.050;7.108;2024-01-30T14:03:08;4.70;;;3.47;;
22017;SDS011;11173;51.050;7.108;2024-01-30T14:13:08;5.15;;;4.18;;
22017;SDS011;11173;51.050;7.108;2024-01-30T14:23:08;6.03;;;4.18;;
22017;SDS011;11173;51.050;7.108;2024-01-30T14:33:09;7.30;;;4.45;;
22017;SDS011;11173;51.050;7.108;2024-01-30T14:43:09;4.70;;;4.05;;
22017;SDS011;11173;51.050;7.108;2024-01-30T14:53:09;3.08;;;2.88;;
22017;SDS011;11173;51.050;7.108;2024-01-30T15:03:09;4.60;;;3.25;;
22017;SDS011;11173;51.050;7.108;2024-01-30T15:13:09;5.88;;;3.38;;
22017;SDS011;11173;51.050;7.108;2024-01-30T15:23:11;6.05;;;3.70;;
22017;SDS011;11173;51.050;7.108;2024-01-30T15:33:11;4.07;;;3.08;;
22017;SDS011;11173;51.050;7.108;2024-01-30T15:43:11;3.08;;;2.60;;
22017;SDS011;11173;51.050;7.108;2024-01-30T15:53:12;3.03;;;2.75;;
22017;SDS011;11173;51.050;7.108;2024-01-30T16:03:12;6.25;;;4.65;;
22017;SDS011;11173;51.050;7.108;2024-01-30T16:13:12;9.57;;;5.55;;
22017;SDS011;11173;51.050;7.108;2024-01-30T16:23:12;6.00;;;5.25;;
22017;SDS011;11173;51.050;7.108;2024-01-30T16:33:13;4.03;;;2.97;;
22017;SDS011;11173;51.050;7.108;2024-01-30T16:43:13;1.60;;;1.38;;
22017;SDS011;11173;51.050;7.108;2024-01-30T16:53:14;2.03;;;1.40;;
22017;SDS011;11173;51.050;7.108;2024-01-30T17:03:14;1.73;;;1.02;;
22017;SDS011;11173;51.050;7.108;2024-01-30T17:13:15;2.42;;;1.10;;
22017;SDS011;11173;51.050;7.108;2024-01-30T17:23:15;0.98;;;0.88;;
22017;SDS011;11173;51.050;7.108;2024-01-30T17:33:15;0.88;;;0.73;;
22017;SDS011;11173;51.050;7.108;2024-01-30T17:43:16;1.20;;;0.70;;
22017;SDS011;11173;51.050;7.108;2024-01-30T17:53:16;1.45;;;0.80;;
22017;SDS011;11173;51.050;7.108;2024-01-30T18:03:17;1.40;;;0.77;;
22017;SDS011;11173;51.050;7.108;2024-01-30T18:13:17;1.98;;;0.50;;
22017;SDS011;11173;51.050;7.108;2024-01-30T18:23:17;1.10;;;0.80;;
22017;SDS011;11173;51.050;7.108;2024-01-30T18:33:18;1.10;;;0.77;;
22017;SDS011;11173;51.050;7.108;2024-01-30T18:43:18;1.50;;;0.80;;
22017;SDS011;11173;51.050;7.108;2024-01-30T18:53:18;0.80;;;0.80;;
22017;SDS011;11173;51.050;7.108;2024-01-30T19:03:19;1.73;;;1.50;;
22017;SDS011;11173;51.050;7.108;2024-01-30T19:13:19;2.83;;;1.20;;
22017;SDS011;11173;51.050;7.108;2024-01-30T19:23:20;1.40;;;1.13;;
22017;SDS011;11173;51.050;7.108;2024-01-30T19:33:20;1.50;;;1.20;;
22017;SDS011;11173;51.050;7.108;2024-01-30T19:43:20;1.52;;;1.20;;
22017;SDS011;11173;51.050;7.108;2024-01-30T19:53:21;1.52;;;1.42;;
22017;SDS011;11173;51.050;7.108;2024-01-30T20:03:22;1.85;;;1.58;;
22017;SDS011;11173;51.050;7.108;2024-01-30T20:13:22;1.30;;;1.20;;
22017;SDS011;11173;51.050;7.108;2024-01-30T20:23:22;1.63;;;1.52;;
22017;SDS011;11173;51.050;7.108;2024-01-30T20:33:23;2.70;;;1.40;;
22017;SDS011;11173;51.050;7.108;2024-01-30T20:43:24;1.95;;;0.90;;
22017;SDS011;11173;51.050;7.108;2024-01-30T20:53:24;1.75;;;1.20;;
22017;SDS011;11173;51.050;7.108;2024-01-30T21:03:25;1.58;;;1.13;;
22017;SDS011;11173;51.050;7.108;2024-01-30T21:13:25;1.95;;;1.25;;
22017;SDS011;11173;51.050;7.108;2024-01-30T21:23:25;1.23;;;1.17;;
22017;SDS011;11173;51.050;7.108;2024-01-30T21:33:26;1.60;;;1.50;;
22017;SDS011;11173;51.050;7.108;2024-01-30T21:43:26;1.67;;;1.58;;
22017;SDS011;11173;51.050;7.108;2024-01-30T21:53:26;2.58;;;1.48;;
22017;SDS011;11173;51.050;7.108;2024-01-30T22:03:26;1.20;;;1.20;;
22017;SDS011;11173;51.050;7.108;2024-01-30T22:13:27;1.63;;;1.52;;
22017;SDS011;11173;51.050;7.108;2024-01-30T22:23:27;1.55;;;1.30;;
22017;SDS011;11173;51.050;7.108;2024-01-30T22:33:27;1.75;;;1.65;;
22017;SDS011;11173;51.050;7.108;2024-01-30T22:43:27;2.97;;;2.30;;
22017;SDS011;11173;51.050;7.108;2024-01-30T22:53:30;2.53;;;2.33;;
22017;SDS011;11173;51.050;7.108;2024-01-30T23:03:30;2.60;;;2.40;;
22017;SDS011;11173;51.050;7.108;2024-01-30T23:13:30;3.45;;;3.10;;
22017;SDS011;11173;51.050;7.108;2024-01-30T23:23:30;2.42;;;2.33;;
22017;SDS011;11173;51.050;7.108;2024-01-30T23:33:31;3.35;;;3.08;;
22017;SDS011;11173;51.050;7.108;2024-01-30T23:43:31;3.53;;;3.22;;
22017;SDS011;11173;51.050;7.108;2024-01-30T23:53:31;3.30;;;3.03;;
